Aérodrome :
LOGIN :

S'inscrire | Disclaimer

   EN    FR    IT 

 










Légende :    VFR   VFR Marginal   IFR   IFR Intensif   IFR Très Intensif
Visi : 
Plafond : 
>= 8 km
>= 3000ft
5 à 8 km
1000 à 3000 ft
1500m à 5 km
500 à 1000 ft
800 à 1500m
200 à 500 ft
< 800m
< 200 ft
Symboles :   Orages  Brouillard  Fortes neiges  Fortes précipitations  Vent > 20 kt
SIGMETs :   Divers  Orages  Givrage  Turbulence  Onde Orograph.  Cendres Volcan.






- Altitude de l'aérodrome : 479 ft
- Code IATA : DOL


LFRG - Deauville

DERNIER METAR :
  • 261630Z AUTO 28017KT 9999 SCT028/// BKN034/// BKN060/// ///TCU 06/01 Q1011 TEMPO SHRA BECMG BKN030

METARs EXPIRÉS :
  • 261600Z AUTO 29014KT 250V320 9999 FEW021/// BKN054/// BKN072/// ///TCU 07/02 Q1010 TEMPO SHRA
  • 261530Z AUTO 29017KT 260V320 9999 FEW029/// SCT034/// BKN040/// ///CB 08/01 Q1011 TEMPO SHRA
  • 261500Z AUTO 29016KT 260V320 9999 FEW032 SCT070 07/01 Q1010 TEMPO 30020G30KT SHRA BKN020TCU
  • 261430Z AUTO 28018KT 260V320 9999 BKN034/// BKN040/// BKN054/// ///TCU 08/01 Q1010 TEMPO 30020G30KT SHRA
  • 261400Z AUTO 29017G28KT 9999 BKN034/// BKN041/// ///TCU 07/01 Q1010 TEMPO 3000 SHRAGS BKN015CB

TAF TAF LFRG
Valide du 26 à 15h jusqu'au 27 à 00h UTC


261400Z 2615/2624 30020G30KT 9999 BKN030
PROB30
TEMPO 2615/2618 5000 SHRA BKN020TCU
BECMG 2616/2619 30012KT
BECMG 2622/2624 20010KT
ATIS : +33 2 31 65 65 36



MET'MAP, la Météo Aéronautique d'un coup d'oeil ! - Copyright ORBIFLY Décembre 2007 - Disclaimer

ORBIFLY MET'MAP TEAM :

Programmation & Développement : Alexandra Zaïnal
Sur une idée originale de : Baudouin d'Aumeries
Assistance à la programmation : Marc-Olivier Méhu
Soutien technique & logistique : Manuel Goepfert

Contact : metmap@orbifly.com




SOURCES & CREDITS :

   NOAA